Hauptseite
METAR-TAF:

METAR-TAF

Flughäfen :

Fliegerhorst Nörvenich

Nörvenich, Deutschland

Breite: 50-50N, Länge: 006-40E, Höhe: 118 m

Beobachtung

Neuester Wetterbericht von vor 51 Minuten, um 15:20 UTC
Wind 6 kt aus Nord
Temperatur 28°C
Luftfeuchtigkeit 23%
Luftdruck 1011 hPa
Sichtweite 10 km oder mehr
Leicht bewölkt in der Höhe von 7000 ft
Durchbrochene Bewölkung in der Höhe von 26000 ft

METAR: ETNN 161520Z 35006KT 9999 FEW070 BKN260 28/05 Q1011 BLU+BLU+

Zeit: 18:11 (16:11 UTC)

Prognose

Neuester Wetterbericht von vor 3 Stunden und 11 Minuten, um 13:00 UTC
Gültige Prognose vom 16 um 14 UTC bis 16 um 23 UTC
Wind 5 kt aus Nord/Nordost
Sichtweite 10 km oder mehr
Leicht bewölkt in der Höhe von 7000 ft
Durchbrochene Bewölkung in der Höhe von 30000 ft

TAF: ETNN 161300Z 1614/1623 03005KT 9999 NSW FEW070 BKN300 BY ETGL

Wetterbeobachtungen und Prognosen von mehr als 4000 Flughäfen (METAR und TAF Bericht).

Die verfügbaren Stationen werden durch gelbe und rote Markierungen auf der Karte dargestellt.

Führen Sie die Maus auf sie, um den Namen der Station zu sehen.

Darauf klicken, um die Beobachtung von Wetterbeobachtungen und Prognosen zu sehen.

Um die Karte zu ändern : klicken Sie auf den grünen Tasten mit einem schwarzen Kreuz Zum Vergrößern, auf den grünen Button mit einem Gedankenstrich zu verkleinern, oder auf die grünen Pfeile für benachbarte Karten.


METAR-TAF: